sensor_id;sensor_type;location;lat;lon;timestamp;pressure;altitude;pressure_sealevel;temperature
19040;BMP180;9652;49.014;12.052;2022-08-19T00:00:37;97168.00;;;23.70
19040;BMP180;9652;49.014;12.052;2022-08-19T00:03:06;97148.00;;;23.70
19040;BMP180;9652;49.014;12.052;2022-08-19T00:05:34;97171.00;;;23.70
19040;BMP180;9652;49.014;12.052;2022-08-19T00:08:01;97170.00;;;23.70
19040;BMP180;9652;49.014;12.052;2022-08-19T00:10:29;97180.00;;;23.70
19040;BMP180;9652;49.014;12.052;2022-08-19T00:12:57;97174.00;;;23.70
19040;BMP180;9652;49.014;12.052;2022-08-19T00:15:24;97179.00;;;23.80
19040;BMP180;9652;49.014;12.052;2022-08-19T00:17:51;97179.00;;;23.70
19040;BMP180;9652;49.014;12.052;2022-08-19T00:20:21;97187.00;;;23.80
19040;BMP180;9652;49.014;12.052;2022-08-19T00:22:48;97197.00;;;23.80
19040;BMP180;9652;49.014;12.052;2022-08-19T00:25:16;97195.00;;;23.80
19040;BMP180;9652;49.014;12.052;2022-08-19T00:27:44;97215.00;;;23.80
19040;BMP180;9652;49.014;12.052;2022-08-19T00:30:13;97211.00;;;23.70
19040;BMP180;9652;49.014;12.052;2022-08-19T00:32:40;97212.00;;;23.70
19040;BMP180;9652;49.014;12.052;2022-08-19T00:35:08;97202.00;;;23.70
19040;BMP180;9652;49.014;12.052;2022-08-19T00:37:36;97211.00;;;23.70
19040;BMP180;9652;49.014;12.052;2022-08-19T00:40:07;97203.00;;;23.70
19040;BMP180;9652;49.014;12.052;2022-08-19T00:42:34;97210.00;;;23.70
19040;BMP180;9652;49.014;12.052;2022-08-19T00:45:09;97207.00;;;23.70
19040;BMP180;9652;49.014;12.052;2022-08-19T00:47:38;97215.00;;;23.60
19040;BMP180;9652;49.014;12.052;2022-08-19T00:50:08;97208.00;;;23.60
19040;BMP180;9652;49.014;12.052;2022-08-19T00:52:42;97212.00;;;23.60
19040;BMP180;9652;49.014;12.052;2022-08-19T00:55:16;97207.00;;;23.60
19040;BMP180;9652;49.014;12.052;2022-08-19T00:57:48;97217.00;;;23.60
19040;BMP180;9652;49.014;12.052;2022-08-19T01:00:19;97213.00;;;23.50
19040;BMP180;9652;49.014;12.052;2022-08-19T01:02:47;97172.00;;;23.50
19040;BMP180;9652;49.014;12.052;2022-08-19T01:05:19;97216.00;;;23.50
19040;BMP180;9652;49.014;12.052;2022-08-19T01:07:49;97217.00;;;23.40
19040;BMP180;9652;49.014;12.052;2022-08-19T01:10:20;97204.00;;;23.50
19040;BMP180;9652;49.014;12.052;2022-08-19T01:12:49;97219.00;;;23.60
19040;BMP180;9652;49.014;12.052;2022-08-19T01:15:22;97233.00;;;23.60
19040;BMP180;9652;49.014;12.052;2022-08-19T01:17:54;97240.00;;;23.60
19040;BMP180;9652;49.014;12.052;2022-08-19T01:20:23;97247.00;;;23.70
19040;BMP180;9652;49.014;12.052;2022-08-19T01:22:55;97249.00;;;23.60
19040;BMP180;9652;49.014;12.052;2022-08-19T01:25:28;97237.00;;;23.60
19040;BMP180;9652;49.014;12.052;2022-08-19T01:27:57;97219.00;;;23.60
19040;BMP180;9652;49.014;12.052;2022-08-19T01:30:29;97220.00;;;23.60
19040;BMP180;9652;49.014;12.052;2022-08-19T01:32:58;97225.00;;;23.60
19040;BMP180;9652;49.014;12.052;2022-08-19T01:35:29;97231.00;;;23.60
19040;BMP180;9652;49.014;12.052;2022-08-19T01:38:00;97196.00;;;23.60
19040;BMP180;9652;49.014;12.052;2022-08-19T01:40:31;97240.00;;;23.70
19040;BMP180;9652;49.014;12.052;2022-08-19T01:42:59;97244.00;;;23.80
19040;BMP180;9652;49.014;12.052;2022-08-19T01:45:29;97237.00;;;23.80
19040;BMP180;9652;49.014;12.052;2022-08-19T01:47:58;97241.00;;;23.70
19040;BMP180;9652;49.014;12.052;2022-08-19T01:50:25;97236.00;;;23.80
19040;BMP180;9652;49.014;12.052;2022-08-19T01:52:53;97236.00;;;23.80
19040;BMP180;9652;49.014;12.052;2022-08-19T01:55:22;97218.00;;;23.90
19040;BMP180;9652;49.014;12.052;2022-08-19T01:57:56;97224.00;;;23.80
19040;BMP180;9652;49.014;12.052;2022-08-19T02:00:28;97205.00;;;23.80
19040;BMP180;9652;49.014;12.052;2022-08-19T02:02:56;97208.00;;;23.90
19040;BMP180;9652;49.014;12.052;2022-08-19T02:05:24;97219.00;;;23.80
19040;BMP180;9652;49.014;12.052;2022-08-19T02:07:51;97229.00;;;23.80
19040;BMP180;9652;49.014;12.052;2022-08-19T02:10:21;97242.00;;;23.80
19040;BMP180;9652;49.014;12.052;2022-08-19T02:12:49;97243.00;;;23.80
19040;BMP180;9652;49.014;12.052;2022-08-19T02:15:16;97205.00;;;23.90
19040;BMP180;9652;49.014;12.052;2022-08-19T02:17:45;97215.00;;;23.90
19040;BMP180;9652;49.014;12.052;2022-08-19T02:20:13;97222.00;;;23.90
19040;BMP180;9652;49.014;12.052;2022-08-19T02:22:40;97237.00;;;23.90
19040;BMP180;9652;49.014;12.052;2022-08-19T02:25:09;97244.00;;;24.00
19040;BMP180;9652;49.014;12.052;2022-08-19T02:27:39;97252.00;;;24.00
19040;BMP180;9652;49.014;12.052;2022-08-19T02:30:10;97245.00;;;24.00
19040;BMP180;9652;49.014;12.052;2022-08-19T02:32:38;97236.00;;;24.10
19040;BMP180;9652;49.014;12.052;2022-08-19T02:35:07;97221.00;;;24.10
19040;BMP180;9652;49.014;12.052;2022-08-19T02:37:34;97228.00;;;24.10
19040;BMP180;9652;49.014;12.052;2022-08-19T02:40:19;97221.00;;;24.10
19040;BMP180;9652;49.014;12.052;2022-08-19T02:42:48;97225.00;;;24.10
19040;BMP180;9652;49.014;12.052;2022-08-19T02:45:15;97230.00;;;24.10
19040;BMP180;9652;49.014;12.052;2022-08-19T02:47:42;97229.00;;;24.20
19040;BMP180;9652;49.014;12.052;2022-08-19T02:50:09;97229.00;;;24.20
19040;BMP180;9652;49.014;12.052;2022-08-19T02:52:37;97233.00;;;24.20
19040;BMP180;9652;49.014;12.052;2022-08-19T02:55:06;97229.00;;;24.00
19040;BMP180;9652;49.014;12.052;2022-08-19T02:57:33;97221.00;;;24.20
19040;BMP180;9652;49.014;12.052;2022-08-19T03:00:05;97219.00;;;24.20
19040;BMP180;9652;49.014;12.052;2022-08-19T03:02:32;97203.00;;;24.20
19040;BMP180;9652;49.014;12.052;2022-08-19T03:04:59;97203.00;;;24.20
19040;BMP180;9652;49.014;12.052;2022-08-19T03:07:27;97208.00;;;24.20
19040;BMP180;9652;49.014;12.052;2022-08-19T03:09:54;97213.00;;;24.20
19040;BMP180;9652;49.014;12.052;2022-08-19T03:12:21;97215.00;;;24.20
19040;BMP180;9652;49.014;12.052;2022-08-19T03:14:48;97214.00;;;24.20
19040;BMP180;9652;49.014;12.052;2022-08-19T03:17:17;97230.00;;;24.20
19040;BMP180;9652;49.014;12.052;2022-08-19T03:19:44;97222.00;;;24.20
19040;BMP180;9652;49.014;12.052;2022-08-19T03:22:11;97218.00;;;24.20
19040;BMP180;9652;49.014;12.052;2022-08-19T03:24:39;97209.00;;;24.20
19040;BMP180;9652;49.014;12.052;2022-08-19T03:27:06;97229.00;;;24.20
19040;BMP180;9652;49.014;12.052;2022-08-19T03:29:37;97229.00;;;24.20
19040;BMP180;9652;49.014;12.052;2022-08-19T03:32:05;97268.00;;;24.20
19040;BMP180;9652;49.014;12.052;2022-08-19T03:34:37;97266.00;;;24.20
19040;BMP180;9652;49.014;12.052;2022-08-19T03:37:08;97264.00;;;24.20
19040;BMP180;9652;49.014;12.052;2022-08-19T03:39:38;97277.00;;;24.20
19040;BMP180;9652;49.014;12.052;2022-08-19T03:42:05;97283.00;;;24.30
19040;BMP180;9652;49.014;12.052;2022-08-19T03:44:32;97261.00;;;24.30
19040;BMP180;9652;49.014;12.052;2022-08-19T03:47:04;97241.00;;;24.30
19040;BMP180;9652;49.014;12.052;2022-08-19T03:49:34;97240.00;;;24.30
19040;BMP180;9652;49.014;12.052;2022-08-19T03:52:03;97238.00;;;24.30
19040;BMP180;9652;49.014;12.052;2022-08-19T03:54:33;97214.00;;;24.30
19040;BMP180;9652;49.014;12.052;2022-08-19T03:57:00;97253.00;;;24.30
19040;BMP180;9652;49.014;12.052;2022-08-19T03:59:32;97246.00;;;24.30
19040;BMP180;9652;49.014;12.052;2022-08-19T04:02:06;97255.00;;;24.30
19040;BMP180;9652;49.014;12.052;2022-08-19T04:04:36;97254.00;;;24.30
19040;BMP180;9652;49.014;12.052;2022-08-19T04:07:04;97267.00;;;24.30
19040;BMP180;9652;49.014;12.052;2022-08-19T04:09:34;97272.00;;;24.30
19040;BMP180;9652;49.014;12.052;2022-08-19T04:12:02;97277.00;;;24.30
19040;BMP180;9652;49.014;12.052;2022-08-19T04:14:31;97279.00;;;24.30
19040;BMP180;9652;49.014;12.052;2022-08-19T04:17:02;97291.00;;;24.30
19040;BMP180;9652;49.014;12.052;2022-08-19T04:19:31;97284.00;;;24.30
19040;BMP180;9652;49.014;12.052;2022-08-19T04:22:00;97285.00;;;24.30
19040;BMP180;9652;49.014;12.052;2022-08-19T04:24:27;97283.00;;;24.30
19040;BMP180;9652;49.014;12.052;2022-08-19T04:26:54;97290.00;;;24.20
19040;BMP180;9652;49.014;12.052;2022-08-19T04:29:25;97298.00;;;24.20
19040;BMP180;9652;49.014;12.052;2022-08-19T04:31:54;97314.00;;;24.20
19040;BMP180;9652;49.014;12.052;2022-08-19T04:34:25;97338.00;;;24.30
19040;BMP180;9652;49.014;12.052;2022-08-19T04:36:55;97301.00;;;24.30
19040;BMP180;9652;49.014;12.052;2022-08-19T04:39:28;97312.00;;;24.30
19040;BMP180;9652;49.014;12.052;2022-08-19T04:42:09;97322.00;;;24.30
19040;BMP180;9652;49.014;12.052;2022-08-19T04:44:54;97300.00;;;24.20
19040;BMP180;9652;49.014;12.052;2022-08-19T04:47:21;97290.00;;;24.20
19040;BMP180;9652;49.014;12.052;2022-08-19T04:49:48;97298.00;;;24.20
19040;BMP180;9652;49.014;12.052;2022-08-19T04:52:15;97299.00;;;24.20
19040;BMP180;9652;49.014;12.052;2022-08-19T04:54:43;97312.00;;;24.30
19040;BMP180;9652;49.014;12.052;2022-08-19T04:57:10;97322.00;;;24.30
19040;BMP180;9652;49.014;12.052;2022-08-19T04:59:38;97323.00;;;24.30
19040;BMP180;9652;49.014;12.052;2022-08-19T05:02:08;97323.00;;;24.30
19040;BMP180;9652;49.014;12.052;2022-08-19T05:04:35;97295.00;;;24.40
19040;BMP180;9652;49.014;12.052;2022-08-19T05:07:05;97319.00;;;24.40
19040;BMP180;9652;49.014;12.052;2022-08-19T05:09:32;97326.00;;;24.30
19040;BMP180;9652;49.014;12.052;2022-08-19T05:12:02;97333.00;;;24.40
19040;BMP180;9652;49.014;12.052;2022-08-19T05:14:31;97332.00;;;24.40
19040;BMP180;9652;49.014;12.052;2022-08-19T05:16:58;97333.00;;;24.40
19040;BMP180;9652;49.014;12.052;2022-08-19T05:19:25;97334.00;;;24.40
19040;BMP180;9652;49.014;12.052;2022-08-19T05:22:24;97343.00;;;24.40
19040;BMP180;9652;49.014;12.052;2022-08-19T05:25:05;97327.00;;;24.40
19040;BMP180;9652;49.014;12.052;2022-08-19T05:27:33;97342.00;;;24.40
19040;BMP180;9652;49.014;12.052;2022-08-19T05:30:00;97347.00;;;24.30
19040;BMP180;9652;49.014;12.052;2022-08-19T05:32:28;97357.00;;;24.40
19040;BMP180;9652;49.014;12.052;2022-08-19T05:34:55;97354.00;;;24.40
19040;BMP180;9652;49.014;12.052;2022-08-19T05:37:22;97345.00;;;24.40
19040;BMP180;9652;49.014;12.052;2022-08-19T05:39:53;97353.00;;;24.40
19040;BMP180;9652;49.014;12.052;2022-08-19T05:42:21;97345.00;;;24.40
19040;BMP180;9652;49.014;12.052;2022-08-19T05:44:50;97349.00;;;24.40
19040;BMP180;9652;49.014;12.052;2022-08-19T05:47:18;97341.00;;;24.50
19040;BMP180;9652;49.014;12.052;2022-08-19T05:49:46;97353.00;;;24.50
19040;BMP180;9652;49.014;12.052;2022-08-19T05:52:15;97349.00;;;24.50
19040;BMP180;9652;49.014;12.052;2022-08-19T05:54:43;97336.00;;;24.50
19040;BMP180;9652;49.014;12.052;2022-08-19T05:57:13;97348.00;;;24.50
19040;BMP180;9652;49.014;12.052;2022-08-19T05:59:40;97349.00;;;24.50
19040;BMP180;9652;49.014;12.052;2022-08-19T06:02:09;97347.00;;;24.60
19040;BMP180;9652;49.014;12.052;2022-08-19T06:04:36;97342.00;;;24.60
19040;BMP180;9652;49.014;12.052;2022-08-19T06:07:03;97339.00;;;24.60
19040;BMP180;9652;49.014;12.052;2022-08-19T06:09:30;97323.00;;;24.60
19040;BMP180;9652;49.014;12.052;2022-08-19T06:11:59;97329.00;;;24.60
19040;BMP180;9652;49.014;12.052;2022-08-19T06:14:31;97326.00;;;24.60
19040;BMP180;9652;49.014;12.052;2022-08-19T06:17:00;97316.00;;;24.60
19040;BMP180;9652;49.014;12.052;2022-08-19T06:19:30;97329.00;;;24.60
19040;BMP180;9652;49.014;12.052;2022-08-19T06:21:59;97320.00;;;24.50
19040;BMP180;9652;49.014;12.052;2022-08-19T06:24:28;97329.00;;;24.50
19040;BMP180;9652;49.014;12.052;2022-08-19T06:26:57;97316.00;;;24.50
19040;BMP180;9652;49.014;12.052;2022-08-19T06:29:27;97265.00;;;24.50
19040;BMP180;9652;49.014;12.052;2022-08-19T06:31:58;97326.00;;;24.40
19040;BMP180;9652;49.014;12.052;2022-08-19T06:34:30;97326.00;;;24.40
19040;BMP180;9652;49.014;12.052;2022-08-19T06:37:00;97337.00;;;24.30
19040;BMP180;9652;49.014;12.052;2022-08-19T06:39:30;97336.00;;;24.30
19040;BMP180;9652;49.014;12.052;2022-08-19T06:42:00;97353.00;;;24.20
19040;BMP180;9652;49.014;12.052;2022-08-19T06:44:32;97354.00;;;24.20
19040;BMP180;9652;49.014;12.052;2022-08-19T06:47:01;97357.00;;;24.20
19040;BMP180;9652;49.014;12.052;2022-08-19T06:49:30;97361.00;;;24.20
19040;BMP180;9652;49.014;12.052;2022-08-19T06:51:58;97354.00;;;24.20
19040;BMP180;9652;49.014;12.052;2022-08-19T06:54:27;97362.00;;;24.10
19040;BMP180;9652;49.014;12.052;2022-08-19T06:56:55;97374.00;;;24.10
19040;BMP180;9652;49.014;12.052;2022-08-19T06:59:24;97372.00;;;24.10
19040;BMP180;9652;49.014;12.052;2022-08-19T07:01:56;97367.00;;;24.00
19040;BMP180;9652;49.014;12.052;2022-08-19T07:04:30;97360.00;;;24.00
19040;BMP180;9652;49.014;12.052;2022-08-19T07:07:02;97360.00;;;24.00
19040;BMP180;9652;49.014;12.052;2022-08-19T07:09:31;97361.00;;;24.00
19040;BMP180;9652;49.014;12.052;2022-08-19T07:11:58;97358.00;;;24.00
19040;BMP180;9652;49.014;12.052;2022-08-19T07:14:27;97342.00;;;24.00
19040;BMP180;9652;49.014;12.052;2022-08-19T07:16:56;97339.00;;;24.00
19040;BMP180;9652;49.014;12.052;2022-08-19T07:19:26;97323.00;;;24.00
19040;BMP180;9652;49.014;12.052;2022-08-19T07:21:54;97341.00;;;24.00
19040;BMP180;9652;49.014;12.052;2022-08-19T07:24:25;97348.00;;;24.00
19040;BMP180;9652;49.014;12.052;2022-08-19T07:26:56;97318.00;;;24.00
19040;BMP180;9652;49.014;12.052;2022-08-19T07:29:27;97357.00;;;24.10
19040;BMP180;9652;49.014;12.052;2022-08-19T07:31:56;97355.00;;;24.20
19040;BMP180;9652;49.014;12.052;2022-08-19T07:34:26;97353.00;;;24.20
19040;BMP180;9652;49.014;12.052;2022-08-19T07:36:54;97350.00;;;24.20
19040;BMP180;9652;49.014;12.052;2022-08-19T07:39:25;97341.00;;;24.30
19040;BMP180;9652;49.014;12.052;2022-08-19T07:41:53;97354.00;;;24.40
19040;BMP180;9652;49.014;12.052;2022-08-19T07:44:21;97365.00;;;24.40
19040;BMP180;9652;49.014;12.052;2022-08-19T07:46:54;97359.00;;;24.30
19040;BMP180;9652;49.014;12.052;2022-08-19T07:49:23;97361.00;;;24.50
19040;BMP180;9652;49.014;12.052;2022-08-19T07:51:54;97356.00;;;24.50
19040;BMP180;9652;49.014;12.052;2022-08-19T07:54:26;97357.00;;;24.60
19040;BMP180;9652;49.014;12.052;2022-08-19T07:56:54;97334.00;;;24.70
19040;BMP180;9652;49.014;12.052;2022-08-19T07:59:24;97364.00;;;24.70
19040;BMP180;9652;49.014;12.052;2022-08-19T08:01:51;97371.00;;;24.80
19040;BMP180;9652;49.014;12.052;2022-08-19T08:04:20;97356.00;;;24.80
19040;BMP180;9652;49.014;12.052;2022-08-19T08:07:06;97359.00;;;24.80
19040;BMP180;9652;49.014;12.052;2022-08-19T08:09:53;97357.00;;;24.90
19040;BMP180;9652;49.014;12.052;2022-08-19T08:12:23;97352.00;;;24.90
19040;BMP180;9652;49.014;12.052;2022-08-19T08:14:57;97349.00;;;25.00
19040;BMP180;9652;49.014;12.052;2022-08-19T08:17:28;97349.00;;;25.10
19040;BMP180;9652;49.014;12.052;2022-08-19T08:19:55;97343.00;;;25.20
19040;BMP180;9652;49.014;12.052;2022-08-19T08:22:24;97346.00;;;25.20
19040;BMP180;9652;49.014;12.052;2022-08-19T08:25:16;97348.00;;;25.30
19040;BMP180;9652;49.014;12.052;2022-08-19T08:27:44;97312.00;;;25.40
19040;BMP180;9652;49.014;12.052;2022-08-19T08:30:15;97349.00;;;25.50
19040;BMP180;9652;49.014;12.052;2022-08-19T08:32:42;97338.00;;;25.60
19040;BMP180;9652;49.014;12.052;2022-08-19T08:35:15;97339.00;;;25.60
19040;BMP180;9652;49.014;12.052;2022-08-19T08:37:44;97341.00;;;25.70
19040;BMP180;9652;49.014;12.052;2022-08-19T08:40:32;97327.00;;;25.80
19040;BMP180;9652;49.014;12.052;2022-08-19T08:43:17;97327.00;;;25.90
19040;BMP180;9652;49.014;12.052;2022-08-19T08:45:53;97322.00;;;26.10
19040;BMP180;9652;49.014;12.052;2022-08-19T08:48:38;97324.00;;;26.30
19040;BMP180;9652;49.014;12.052;2022-08-19T08:51:12;97322.00;;;26.40
19040;BMP180;9652;49.014;12.052;2022-08-19T08:53:44;97319.00;;;26.50
19040;BMP180;9652;49.014;12.052;2022-08-19T08:56:15;97312.00;;;26.50
19040;BMP180;9652;49.014;12.052;2022-08-19T08:58:54;97296.00;;;26.50
19040;BMP180;9652;49.014;12.052;2022-08-19T09:01:23;97290.00;;;26.60
19040;BMP180;9652;49.014;12.052;2022-08-19T09:03:50;97289.00;;;26.60
19040;BMP180;9652;49.014;12.052;2022-08-19T09:06:29;97305.00;;;26.70
19040;BMP180;9652;49.014;12.052;2022-08-19T09:09:04;97315.00;;;26.70
19040;BMP180;9652;49.014;12.052;2022-08-19T09:11:49;97317.00;;;26.80
19040;BMP180;9652;49.014;12.052;2022-08-19T09:14:35;97315.00;;;26.90
19040;BMP180;9652;49.014;12.052;2022-08-19T09:17:08;97322.00;;;26.90
19040;BMP180;9652;49.014;12.052;2022-08-19T09:19:49;97325.00;;;27.00
19040;BMP180;9652;49.014;12.052;2022-08-19T09:22:16;97338.00;;;27.00
19040;BMP180;9652;49.014;12.052;2022-08-19T09:24:48;97343.00;;;27.00
19040;BMP180;9652;49.014;12.052;2022-08-19T09:27:17;97349.00;;;27.00
19040;BMP180;9652;49.014;12.052;2022-08-19T09:29:44;97341.00;;;27.00
19040;BMP180;9652;49.014;12.052;2022-08-19T09:32:15;97346.00;;;27.00
19040;BMP180;9652;49.014;12.052;2022-08-19T09:34:43;97344.00;;;27.00
19040;BMP180;9652;49.014;12.052;2022-08-19T09:37:11;97321.00;;;27.00
19040;BMP180;9652;49.014;12.052;2022-08-19T09:39:41;97348.00;;;27.00
19040;BMP180;9652;49.014;12.052;2022-08-19T09:42:09;97349.00;;;27.00
19040;BMP180;9652;49.014;12.052;2022-08-19T09:44:40;97359.00;;;27.00
19040;BMP180;9652;49.014;12.052;2022-08-19T09:47:08;97335.00;;;26.90
19040;BMP180;9652;49.014;12.052;2022-08-19T09:49:37;97330.00;;;26.80
19040;BMP180;9652;49.014;12.052;2022-08-19T09:52:05;97360.00;;;26.70
19040;BMP180;9652;49.014;12.052;2022-08-19T09:54:33;97357.00;;;26.70
19040;BMP180;9652;49.014;12.052;2022-08-19T09:57:01;97369.00;;;26.70
19040;BMP180;9652;49.014;12.052;2022-08-19T09:59:29;97371.00;;;26.70
19040;BMP180;9652;49.014;12.052;2022-08-19T10:01:57;97367.00;;;26.70
19040;BMP180;9652;49.014;12.052;2022-08-19T10:04:24;97352.00;;;26.70
19040;BMP180;9652;49.014;12.052;2022-08-19T10:07:13;97374.00;;;26.70
19040;BMP180;9652;49.014;12.052;2022-08-19T10:09:40;97372.00;;;26.70
19040;BMP180;9652;49.014;12.052;2022-08-19T10:12:07;97380.00;;;26.70
19040;BMP180;9652;49.014;12.052;2022-08-19T10:14:35;97377.00;;;26.70
19040;BMP180;9652;49.014;12.052;2022-08-19T10:17:03;97372.00;;;26.70
19040;BMP180;9652;49.014;12.052;2022-08-19T10:19:30;97377.00;;;26.70
19040;BMP180;9652;49.014;12.052;2022-08-19T10:22:03;97366.00;;;26.60
19040;BMP180;9652;49.014;12.052;2022-08-19T10:24:31;97378.00;;;26.60
19040;BMP180;9652;49.014;12.052;2022-08-19T10:27:00;97336.00;;;26.60
19040;BMP180;9652;49.014;12.052;2022-08-19T10:29:30;97350.00;;;26.60
19040;BMP180;9652;49.014;12.052;2022-08-19T10:31:57;97355.00;;;26.60
19040;BMP180;9652;49.014;12.052;2022-08-19T10:34:28;97345.00;;;26.70
19040;BMP180;9652;49.014;12.052;2022-08-19T10:36:58;97360.00;;;26.80
19040;BMP180;9652;49.014;12.052;2022-08-19T10:39:26;97351.00;;;26.90
19040;BMP180;9652;49.014;12.052;2022-08-19T10:41:55;97330.00;;;27.00
19040;BMP180;9652;49.014;12.052;2022-08-19T10:44:23;97356.00;;;27.00
19040;BMP180;9652;49.014;12.052;2022-08-19T10:46:50;97354.00;;;27.10
19040;BMP180;9652;49.014;12.052;2022-08-19T10:49:18;97354.00;;;27.20
19040;BMP180;9652;49.014;12.052;2022-08-19T10:51:47;97358.00;;;27.20
19040;BMP180;9652;49.014;12.052;2022-08-19T10:54:33;97341.00;;;27.20
19040;BMP180;9652;49.014;12.052;2022-08-19T10:57:17;97348.00;;;27.20
19040;BMP180;9652;49.014;12.052;2022-08-19T10:59:45;97349.00;;;27.20
19040;BMP180;9652;49.014;12.052;2022-08-19T11:02:12;97352.00;;;27.20
19040;BMP180;9652;49.014;12.052;2022-08-19T11:04:40;97299.00;;;27.30
19040;BMP180;9652;49.014;12.052;2022-08-19T11:07:09;97343.00;;;27.30
19040;BMP180;9652;49.014;12.052;2022-08-19T11:09:40;97340.00;;;27.40
19040;BMP180;9652;49.014;12.052;2022-08-19T11:12:08;97295.00;;;27.40
19040;BMP180;9652;49.014;12.052;2022-08-19T11:14:36;97318.00;;;27.40
19040;BMP180;9652;49.014;12.052;2022-08-19T11:17:05;97345.00;;;27.50
19040;BMP180;9652;49.014;12.052;2022-08-19T11:19:33;97337.00;;;27.50
19040;BMP180;9652;49.014;12.052;2022-08-19T11:22:01;97347.00;;;27.50
19040;BMP180;9652;49.014;12.052;2022-08-19T11:24:30;97345.00;;;27.50
19040;BMP180;9652;49.014;12.052;2022-08-19T11:27:03;97338.00;;;27.50
19040;BMP180;9652;49.014;12.052;2022-08-19T11:29:32;97343.00;;;27.50
19040;BMP180;9652;49.014;12.052;2022-08-19T11:32:04;97343.00;;;27.50
19040;BMP180;9652;49.014;12.052;2022-08-19T11:34:31;97356.00;;;27.40
19040;BMP180;9652;49.014;12.052;2022-08-19T11:36:59;97352.00;;;27.10
19040;BMP180;9652;49.014;12.052;2022-08-19T11:39:30;97351.00;;;27.20
19040;BMP180;9652;49.014;12.052;2022-08-19T11:41:58;97354.00;;;27.10
19040;BMP180;9652;49.014;12.052;2022-08-19T11:44:26;97349.00;;;26.90
19040;BMP180;9652;49.014;12.052;2022-08-19T11:46:56;97354.00;;;26.70
19040;BMP180;9652;49.014;12.052;2022-08-19T11:49:23;97339.00;;;26.50
19040;BMP180;9652;49.014;12.052;2022-08-19T11:51:50;97353.00;;;26.40
19040;BMP180;9652;49.014;12.052;2022-08-19T11:54:17;97347.00;;;26.20
19040;BMP180;9652;49.014;12.052;2022-08-19T11:56:46;97348.00;;;25.90
19040;BMP180;9652;49.014;12.052;2022-08-19T11:59:14;97335.00;;;25.60
19040;BMP180;9652;49.014;12.052;2022-08-19T12:01:41;97335.00;;;25.40
19040;BMP180;9652;49.014;12.052;2022-08-19T12:04:10;97304.00;;;25.20
19040;BMP180;9652;49.014;12.052;2022-08-19T12:06:40;97327.00;;;25.00
19040;BMP180;9652;49.014;12.052;2022-08-19T12:09:09;97349.00;;;24.70
19040;BMP180;9652;49.014;12.052;2022-08-19T12:11:37;97339.00;;;24.60
19040;BMP180;9652;49.014;12.052;2022-08-19T12:14:10;97334.00;;;24.40
19040;BMP180;9652;49.014;12.052;2022-08-19T12:16:40;97336.00;;;24.40
19040;BMP180;9652;49.014;12.052;2022-08-19T12:19:07;97329.00;;;24.40
19040;BMP180;9652;49.014;12.052;2022-08-19T12:21:35;97332.00;;;24.40
19040;BMP180;9652;49.014;12.052;2022-08-19T12:24:05;97319.00;;;24.30
19040;BMP180;9652;49.014;12.052;2022-08-19T12:26:33;97339.00;;;24.40
19040;BMP180;9652;49.014;12.052;2022-08-19T12:29:01;97326.00;;;24.40
19040;BMP180;9652;49.014;12.052;2022-08-19T12:31:29;97326.00;;;24.30
19040;BMP180;9652;49.014;12.052;2022-08-19T12:33:57;97324.00;;;24.30
19040;BMP180;9652;49.014;12.052;2022-08-19T12:36:24;97318.00;;;24.30
19040;BMP180;9652;49.014;12.052;2022-08-19T12:38:52;97324.00;;;24.40
19040;BMP180;9652;49.014;12.052;2022-08-19T12:41:20;97324.00;;;24.40
19040;BMP180;9652;49.014;12.052;2022-08-19T12:43:48;97297.00;;;24.40
19040;BMP180;9652;49.014;12.052;2022-08-19T12:46:17;97322.00;;;24.40
19040;BMP180;9652;49.014;12.052;2022-08-19T12:48:46;97316.00;;;24.50
19040;BMP180;9652;49.014;12.052;2022-08-19T12:51:15;97299.00;;;24.50
19040;BMP180;9652;49.014;12.052;2022-08-19T12:53:44;97316.00;;;24.60
19040;BMP180;9652;49.014;12.052;2022-08-19T12:56:12;97319.00;;;24.40
19040;BMP180;9652;49.014;12.052;2022-08-19T12:58:41;97306.00;;;24.70
19040;BMP180;9652;49.014;12.052;2022-08-19T13:01:14;97329.00;;;24.80
19040;BMP180;9652;49.014;12.052;2022-08-19T13:03:42;97320.00;;;24.90
19040;BMP180;9652;49.014;12.052;2022-08-19T13:06:11;97329.00;;;25.00
19040;BMP180;9652;49.014;12.052;2022-08-19T13:08:38;97283.00;;;25.10
19040;BMP180;9652;49.014;12.052;2022-08-19T13:11:11;97321.00;;;25.20
19040;BMP180;9652;49.014;12.052;2022-08-19T13:13:40;97325.00;;;25.30
19040;BMP180;9652;49.014;12.052;2022-08-19T13:16:09;97318.00;;;25.30
19040;BMP180;9652;49.014;12.052;2022-08-19T13:18:37;97329.00;;;25.30
19040;BMP180;9652;49.014;12.052;2022-08-19T13:21:07;97337.00;;;25.30
19040;BMP180;9652;49.014;12.052;2022-08-19T13:23:36;97330.00;;;25.30
19040;BMP180;9652;49.014;12.052;2022-08-19T13:26:06;97340.00;;;25.30
19040;BMP180;9652;49.014;12.052;2022-08-19T13:28:35;97331.00;;;25.30
19040;BMP180;9652;49.014;12.052;2022-08-19T13:31:23;97334.00;;;25.10
19040;BMP180;9652;49.014;12.052;2022-08-19T13:34:08;97334.00;;;25.30
19040;BMP180;9652;49.014;12.052;2022-08-19T13:36:37;97335.00;;;25.30
19040;BMP180;9652;49.014;12.052;2022-08-19T13:39:07;97341.00;;;25.40
19040;BMP180;9652;49.014;12.052;2022-08-19T13:41:36;97340.00;;;25.50
19040;BMP180;9652;49.014;12.052;2022-08-19T13:44:03;97340.00;;;25.60
19040;BMP180;9652;49.014;12.052;2022-08-19T13:46:32;97335.00;;;25.60
19040;BMP180;9652;49.014;12.052;2022-08-19T13:48:59;97332.00;;;25.80
19040;BMP180;9652;49.014;12.052;2022-08-19T13:51:26;97321.00;;;25.90
19040;BMP180;9652;49.014;12.052;2022-08-19T13:53:53;97335.00;;;26.00
19040;BMP180;9652;49.014;12.052;2022-08-19T13:56:22;97341.00;;;26.20
19040;BMP180;9652;49.014;12.052;2022-08-19T13:58:49;97337.00;;;26.40
19040;BMP180;9652;49.014;12.052;2022-08-19T14:01:20;97335.00;;;26.50
19040;BMP180;9652;49.014;12.052;2022-08-19T14:03:47;97332.00;;;26.50
19040;BMP180;9652;49.014;12.052;2022-08-19T14:06:14;97328.00;;;26.60
19040;BMP180;9652;49.014;12.052;2022-08-19T14:08:42;97302.00;;;26.70
19040;BMP180;9652;49.014;12.052;2022-08-19T14:11:10;97322.00;;;26.80
19040;BMP180;9652;49.014;12.052;2022-08-19T14:13:39;97325.00;;;26.90
19040;BMP180;9652;49.014;12.052;2022-08-19T14:16:08;97329.00;;;27.00
19040;BMP180;9652;49.014;12.052;2022-08-19T14:18:36;97300.00;;;27.10
19040;BMP180;9652;49.014;12.052;2022-08-19T14:21:04;97305.00;;;27.20
19040;BMP180;9652;49.014;12.052;2022-08-19T14:23:31;97314.00;;;27.20